Arlington, WA

5:06 PM PST on December 24, 2014 (GMT -0800)
Skagit Regional | Change Station
CLOSE
Current Station
Airport
Location: Burlington,
Elevation: 144 ft
Nearby Weather Stations

Elev 144 ft 48.47 °N, 122.42 °W | Updated 11 minutes ago

Overcast
Overcast
39 °F
Feels Like 39 °F
N
0
Wind Variable Wind from North

Today
High -- | Low -- °F
--% Chance of Precip.
Yesterday
High -- | Low -- °F
Precip. -- in
7:57 AM 4:18 PM
Waxing Crescent, 12% visible
Pressure 29.96 in
Visibility 2.5 miles
Clouds Clear
Dew Point 39 °F
Humidity 100%
Rainfall 0.42 in
Snow Depth Not available.
UV 0 out of 12
Pollen .50 out of 12
Air Quality Not available.
Flu Activity Not available.
METAR KBVS 250055Z AUTO 00000KT 2 1/2SM CLR 04/04 A2996 RMK A01 P000

More Conditions Fewer Conditions

Pressure 29.96 in
Visibility 2.5 miles
Clouds Clear
Dew Point 39 °F
Humidity 100%
Rainfall 0.42 in
Snow Depth Not available.
UV 0 out of 12
Pollen .50 out of 12
Air Quality Not available.
Flu Activity Not available.
METAR KBVS 250055Z AUTO 00000KT 2 1/2SM CLR 04/04 A2996 RMK A01 P000

More Conditions Fewer Conditions

10-Day Weather Forecast

Almanac

Astronomy

Dec. 24, 2014 Rise Set
Actual Time
Civil Twilight
Nautical Twilight
Astronomical Twilight
Moon
Length of Visible Light
Length of Day
Tomorrow will be .
, % of the Moon is Illuminated

Today's Extremes

State Highs State Lows

Community

WunderPhotos

Upload Photos

1,780,199 photos uploaded!

WunderBlogs® & News

Nearby

Air Quality

  Air Quality AQ Index Pollutant
Not available.

Snow Depth

Station Depth Elevation

Earthquake Activity

City Distance Mag. Time & Date
Minimum magnitude displayed is 2.5.

Coastal Water Temperatures

Place Temperature

Nearby Weather Stations